ADDS METAR Data INFO
IDs: Format: Raw Decoded Include TAF

Data at: 1603 UTC 21 Sep 2017

METAR for:KJAX (Jacksonville Intl, FL, US)
Text:KJAX 211556Z 05004KT 10SM SCT030 SCT050 BKN150 BKN250 29/23 A3004 RMK AO2 SLP173 T02940228
Temperature: 29.4°C ( 85°F)
Dewpoint: 22.8°C ( 73°F) [RH = 68%]
Pressure (altimeter):30.04 inches Hg (1017.4 mb) [Sea level pressure: 1017.3 mb]
Winds:from the NE (50 degrees) at 5 MPH (4 knots; 2.1 m/s)
Visibility:10 or more sm (16+ km)
Ceiling:15000 feet AGL
Clouds: scattered clouds at 3000 feet AGL, scattered clouds at 5000 feet AGL, broken clouds at 15000 feet AGL, broken clouds at 25000 feet AGL

METAR for:KCRG (Jacksonville/Executi, FL, US)
Text:KCRG 211535Z 00000KT 7SM SCT035 29/22 A3005
Temperature: 29.0°C ( 84°F)
Dewpoint: 22.0°C ( 72°F) [RH = 66%]
Pressure (altimeter):30.05 inches Hg (1017.7 mb)
Winds:calm
Visibility: 7 sm ( 11 km)
Ceiling:at least 12,000 feet AGL
Clouds: scattered clouds at 3500 feet AGL

METAR for:KNIP (Jacksonville (NAS), FL, US)
Text:KNIP 211553Z VRB03KT 10SM FEW030 SCT180 BKN250 29/22 A3005 RMK AO2 SLP170 T02890217
Temperature: 28.9°C ( 84°F)
Dewpoint: 21.7°C ( 71°F) [RH = 65%]
Pressure (altimeter):30.05 inches Hg (1017.7 mb) [Sea level pressure: 1017.0 mb]
Winds:variable direction winds at 3 MPH (3 knots; 1.5 m/s)
Visibility:10 or more sm (16+ km)
Ceiling:25000 feet AGL
Clouds: few clouds at 3000 feet AGL, scattered clouds at 18000 feet AGL, broken clouds at 25000 feet AGL

METAR for:KNRB (Mayport (NS), FL, US)
Text:KNRB 211552Z 06005KT 10SM FEW030 FEW060 OVC250 29/25 A3004 RMK AO2 SLP173 T02890250
Temperature: 28.9°C ( 84°F)
Dewpoint: 25.0°C ( 77°F) [RH = 80%]
Pressure (altimeter):30.04 inches Hg (1017.4 mb) [Sea level pressure: 1017.3 mb]
Winds:from the ENE (60 degrees) at 6 MPH (5 knots; 2.6 m/s)
Visibility:10 or more sm (16+ km)
Ceiling:25000 feet AGL
Clouds: few clouds at 3000 feet AGL, few clouds at 6000 feet AGL, overcast cloud deck at 25000 feet AGL

METAR for:KFHB (Fernandina Beach Mun, FL, US)
Text:KFHB 211555Z AUTO 10SM BKN021 BKN026 29/22 A3004 RMK AO1
Temperature: 29.0°C ( 84°F)
Dewpoint: 22.0°C ( 72°F) [RH = 66%]
Pressure (altimeter):30.04 inches Hg (1017.4 mb)
Visibility:10 or more sm (16+ km)
Ceiling:2100 feet AGL
Clouds: broken clouds at 2100 feet AGL, broken clouds at 2600 feet AGL
QC Flag:automated observation with no human augmentation

METAR for:KVQQ (Jacksonville/Cecil A, FL, US)
Text:KVQQ 211550Z 33004KT 10SM CLR 30/23 A3004
Temperature: 30.0°C ( 86°F)
Dewpoint: 23.0°C ( 73°F) [RH = 66%]
Pressure (altimeter):30.04 inches Hg (1017.4 mb)
Winds:from the NNW (330 degrees) at 5 MPH (4 knots; 2.1 m/s)
Visibility:10 or more sm (16+ km)
Ceiling:at least 12,000 feet AGL
Clouds:sky clear below 12,000 feet AGL